Terminal Aerodrome Forecast
Issued by NWS

Home | Current Version | Previous Version | Text Only | Print | Product List | Glossary On
Versions: 1 2 3 4 5 6 7 8 9 10 11 12 13 14 15 16 17
346
FTUS45 KFGZ 182322
TAFGCN
TAF
KGCN 182322Z 1900/1924 23010KT P6SM FEW110 BKN200
     FM190900 23010G17KT P6SM SCT020 OVC080 PROB30 1911/1914 4SM
      -SHSN OVC020
     FM191400 22011G18KT 2SM -SN BR BKN012 OVC020
      TEMPO 1920/1924 1SM -SN BR VV010=

USA.gov is the U.S. government's official web portal to all federal, state and local government web resources and services.